createdAt,value
2018-12-18T00:00:03.516Z,89.69
2018-12-18T00:01:03.530Z,89.69
2018-12-18T00:02:03.545Z,89.79
2018-12-18T00:03:03.523Z,89.89
2018-12-18T00:04:03.501Z,90.06
2018-12-18T00:05:03.459Z,89.79
2018-12-18T00:06:03.522Z,89.58
2018-12-18T00:07:03.462Z,89.79
2018-12-18T00:08:03.525Z,89.79
2018-12-18T00:09:03.438Z,89.69
2018-12-18T00:10:03.435Z,89.48
2018-12-18T00:11:03.401Z,89.58
2018-12-18T00:12:03.414Z,89.89
2018-12-18T00:13:03.388Z,90.06
2018-12-18T00:14:03.385Z,88.96
2018-12-18T00:15:03.389Z,89.23
2018-12-18T00:16:03.375Z,89.33
2018-12-18T00:17:03.737Z,89.12
2018-12-18T00:18:03.358Z,89.02
2018-12-18T00:19:03.334Z,88.50
2018-12-18T00:20:03.319Z,88.60
2018-12-18T00:21:03.301Z,88.60
2018-12-18T00:22:03.341Z,88.40
2018-12-18T00:23:03.371Z,88.50
2018-12-18T00:24:03.284Z,88.29
2018-12-18T00:25:03.276Z,88.40
2018-12-18T00:26:03.286Z,87.88
2018-12-18T00:27:03.280Z,88.29
2018-12-18T00:28:03.239Z,88.19
2018-12-18T00:29:03.229Z,87.84
2018-12-18T00:30:03.245Z,88.09
2018-12-18T00:31:03.190Z,87.88
2018-12-18T00:32:03.224Z,87.98
2018-12-18T00:33:03.221Z,87.98
2018-12-18T00:34:03.153Z,88.29
2018-12-18T00:35:03.180Z,87.98
2018-12-18T00:36:03.154Z,88.15
2018-12-18T00:37:03.167Z,88.19
2018-12-18T00:38:03.158Z,87.98
2018-12-18T00:39:03.105Z,87.88
2018-12-18T00:40:03.137Z,87.88
2018-12-18T00:41:03.126Z,87.94
2018-12-18T00:42:03.164Z,88.56
2018-12-18T00:43:03.085Z,87.52
2018-12-18T00:44:03.073Z,87.94
2018-12-18T00:45:03.043Z,87.94
2018-12-18T00:46:03.098Z,87.73
2018-12-18T00:47:03.015Z,87.84
2018-12-18T00:48:03.030Z,87.94
2018-12-18T00:49:03.022Z,87.94
2018-12-18T00:50:03.011Z,88.04
2018-12-18T00:51:03.034Z,87.94
2018-12-18T00:52:02.977Z,87.94
2018-12-18T00:53:02.973Z,88.25
2018-12-18T00:54:02.957Z,87.94
2018-12-18T00:55:02.964Z,87.94
2018-12-18T00:56:03.015Z,88.04
2018-12-18T00:57:02.940Z,87.94
2018-12-18T00:58:02.923Z,88.15
2018-12-18T00:59:02.971Z,88.25
2018-12-18T01:00:02.928Z,87.73
2018-12-18T01:01:03.639Z,88.25
2018-12-18T01:02:02.951Z,87.63
2018-12-18T01:03:03.750Z,88.25
2018-12-18T01:04:02.836Z,87.84
2018-12-18T01:05:02.844Z,88.04
2018-12-18T01:06:03.143Z,88.35
2018-12-18T01:07:02.835Z,87.52
2018-12-18T01:08:02.847Z,87.79
2018-12-18T01:09:02.798Z,87.63
2018-12-18T01:10:02.868Z,87.73
2018-12-18T01:11:02.797Z,88.15
2018-12-18T01:12:02.771Z,87.52
2018-12-18T01:13:02.783Z,87.63
2018-12-18T01:14:02.800Z,87.73
2018-12-18T01:15:02.760Z,87.73
2018-12-18T01:16:02.736Z,87.90
2018-12-18T01:17:02.719Z,87.63
2018-12-18T01:18:02.708Z,87.59
2018-12-18T01:19:02.733Z,87.59
2018-12-18T01:20:02.705Z,87.59
2018-12-18T01:21:02.720Z,87.38
2018-12-18T01:22:02.663Z,87.59
2018-12-18T01:23:02.667Z,87.69
2018-12-18T01:24:02.656Z,87.59
2018-12-18T01:25:02.659Z,87.59
2018-12-18T01:26:02.646Z,87.69
2018-12-18T01:27:02.659Z,87.59
2018-12-18T01:28:02.648Z,87.79
2018-12-18T01:29:02.603Z,87.79
2018-12-18T01:30:02.634Z,87.69
2018-12-18T01:31:02.594Z,87.69
2018-12-18T01:32:02.578Z,87.69
2018-12-18T01:33:02.550Z,87.69
2018-12-18T01:34:02.615Z,88.10
2018-12-18T01:35:02.579Z,88.00
2018-12-18T01:36:02.605Z,88.00
2018-12-18T01:37:02.536Z,88.00
2018-12-18T01:38:02.542Z,88.10
2018-12-18T01:39:02.494Z,87.79
2018-12-18T01:40:02.507Z,87.59
2018-12-18T01:41:02.470Z,87.79
2018-12-18T01:42:02.458Z,87.59
2018-12-18T01:43:02.469Z,88.10
2018-12-18T01:44:02.479Z,88.10
2018-12-18T01:45:02.427Z,87.69
2018-12-18T01:46:02.420Z,88.00
2018-12-18T01:47:02.407Z,87.79
2018-12-18T01:48:02.408Z,88.10
2018-12-18T01:49:02.429Z,87.69
2018-12-18T01:50:02.400Z,87.79
2018-12-18T01:51:02.406Z,87.48
2018-12-18T01:52:02.356Z,87.59
2018-12-18T01:53:02.378Z,87.48
2018-12-18T01:54:02.333Z,87.48
2018-12-18T01:55:02.352Z,87.59
2018-12-18T01:56:02.310Z,87.69
2018-12-18T01:57:02.290Z,87.55
2018-12-18T01:58:02.292Z,88.21
2018-12-18T01:59:02.291Z,87.90
2018-12-18T02:00:02.321Z,88.52
2018-12-18T02:01:02.293Z,88.52
2018-12-18T02:02:02.254Z,88.42
2018-12-18T02:03:02.280Z,88.31
2018-12-18T02:04:05.954Z,88.52
2018-12-18T02:05:02.245Z,89.15
2018-12-18T02:06:02.242Z,89.11
2018-12-18T02:07:02.229Z,88.84
2018-12-18T02:08:02.277Z,89.98
2018-12-18T02:09:02.172Z,89.62
2018-12-18T02:10:02.188Z,89.25
2018-12-18T02:11:02.169Z,89.67
2018-12-18T02:12:02.205Z,90.19
2018-12-18T02:13:02.128Z,90.19
2018-12-18T02:14:02.132Z,90.50
2018-12-18T02:15:02.128Z,90.45
2018-12-18T02:16:02.182Z,90.45
2018-12-18T02:17:02.121Z,90.35
2018-12-18T02:18:03.149Z,90.50
2018-12-18T02:19:02.104Z,90.39
2018-12-18T02:20:02.070Z,90.35
2018-12-18T02:21:02.068Z,90.39
2018-12-18T02:22:02.115Z,90.81
2018-12-18T02:23:02.031Z,90.50
2018-12-18T02:24:02.025Z,90.70
2018-12-18T02:25:02.028Z,90.45
2018-12-18T02:26:02.015Z,90.50
2018-12-18T02:27:01.998Z,90.60
2018-12-18T02:28:02.009Z,90.50
2018-12-18T02:29:01.995Z,90.29
2018-12-18T02:30:01.987Z,90.08
2018-12-18T02:31:01.988Z,90.19
2018-12-18T02:32:01.945Z,90.14
2018-12-18T02:33:01.962Z,90.29
2018-12-18T02:34:01.971Z,90.29
2018-12-18T02:35:01.924Z,90.14
2018-12-18T02:36:01.930Z,90.19
2018-12-18T02:37:01.880Z,90.35
2018-12-18T02:38:01.900Z,90.35
2018-12-18T02:39:01.870Z,89.94
2018-12-18T02:40:01.897Z,89.52
2018-12-18T02:41:01.853Z,89.52
2018-12-18T02:42:01.858Z,89.67
2018-12-18T02:43:01.868Z,89.42
2018-12-18T02:44:01.825Z,89.62
2018-12-18T02:45:01.825Z,89.62
2018-12-18T02:46:01.796Z,89.62
2018-12-18T02:47:01.801Z,89.94
2018-12-18T02:48:01.811Z,89.94
2018-12-18T02:49:01.799Z,89.94
2018-12-18T02:50:01.806Z,90.14
2018-12-18T02:51:01.762Z,89.73
2018-12-18T02:52:01.766Z,90.04
2018-12-18T02:53:01.731Z,90.25
2018-12-18T02:54:01.816Z,89.94
2018-12-18T02:55:01.753Z,90.14
2018-12-18T02:56:01.701Z,90.25
2018-12-18T02:57:01.689Z,90.14
2018-12-18T02:58:01.702Z,90.25
2018-12-18T02:59:01.660Z,90.14
2018-12-18T03:00:01.678Z,90.45
2018-12-18T03:01:01.641Z,90.04
2018-12-18T03:02:01.641Z,90.04
2018-12-18T03:03:01.627Z,90.14
2018-12-18T03:04:01.637Z,90.04
2018-12-18T03:05:01.648Z,90.45
2018-12-18T03:06:01.597Z,90.35
2018-12-18T03:07:01.605Z,90.35
2018-12-18T03:08:01.584Z,90.66
2018-12-18T03:09:01.574Z,90.77
2018-12-18T03:10:01.566Z,90.45
2018-12-18T03:11:01.585Z,90.87
2018-12-18T03:12:01.557Z,90.97
2018-12-18T03:13:01.529Z,91.08
2018-12-18T03:14:01.514Z,91.39
2018-12-18T03:15:01.502Z,91.08
2018-12-18T03:16:01.489Z,91.28
2018-12-18T03:17:01.535Z,91.24
2018-12-18T03:18:01.502Z,91.39
2018-12-18T03:19:01.476Z,91.49
2018-12-18T03:20:01.456Z,91.39
2018-12-18T03:21:01.483Z,91.39
2018-12-18T03:22:01.444Z,91.39
2018-12-18T03:23:01.418Z,91.28
2018-12-18T03:24:01.415Z,91.39
2018-12-18T03:25:01.445Z,91.03
2018-12-18T03:26:01.375Z,91.49
2018-12-18T03:27:01.375Z,91.35
2018-12-18T03:28:01.390Z,91.35
2018-12-18T03:29:01.349Z,91.24
2018-12-18T03:30:01.407Z,91.35
2018-12-18T03:31:01.334Z,91.35
2018-12-18T03:32:01.335Z,91.24
2018-12-18T03:33:01.374Z,91.35
2018-12-18T03:34:01.297Z,91.39
2018-12-18T03:35:01.346Z,91.14
2018-12-18T03:36:01.287Z,91.24
2018-12-18T03:37:01.275Z,91.14
2018-12-18T03:38:01.252Z,91.39
2018-12-18T03:39:01.250Z,91.24
2018-12-18T03:40:01.214Z,91.14
2018-12-18T03:41:01.281Z,91.35
2018-12-18T03:42:01.195Z,91.28
2018-12-18T03:43:01.203Z,91.35
2018-12-18T03:44:01.177Z,91.18
2018-12-18T03:45:01.193Z,90.97
2018-12-18T03:46:01.198Z,90.97
2018-12-18T03:47:01.222Z,91.08
2018-12-18T03:48:01.146Z,90.87
2018-12-18T03:49:01.159Z,91.08
2018-12-18T03:50:01.210Z,91.60
2018-12-18T03:51:01.123Z,91.39
2018-12-18T03:52:01.130Z,91.49
2018-12-18T03:53:01.118Z,91.70
2018-12-18T03:54:01.153Z,92.43
2018-12-18T03:55:01.089Z,92.11
2018-12-18T03:56:01.061Z,92.01
2018-12-18T03:57:01.091Z,92.01
2018-12-18T03:58:01.057Z,92.49
2018-12-18T03:59:01.076Z,92.32
2018-12-18T04:00:01.018Z,92.43
2018-12-18T04:01:01.028Z,92.74
2018-12-18T04:02:01.003Z,92.84
2018-12-18T04:03:01.024Z,93.05
2018-12-18T04:04:00.984Z,93.57
2018-12-18T04:05:01.012Z,93.26
2018-12-18T04:06:00.992Z,93.05
2018-12-18T04:07:00.990Z,93.47
2018-12-18T04:08:00.993Z,93.57
2018-12-18T04:09:00.951Z,93.37
2018-12-18T04:10:00.918Z,93.57
2018-12-18T04:11:00.933Z,93.57
2018-12-18T04:12:00.887Z,93.47
2018-12-18T04:13:00.903Z,93.57
2018-12-18T04:14:00.946Z,93.47
2018-12-18T04:15:00.929Z,93.37
2018-12-18T04:16:00.905Z,93.57
2018-12-18T04:17:00.871Z,93.43
2018-12-18T04:18:00.839Z,93.22
2018-12-18T04:19:00.883Z,93.53
2018-12-18T04:20:00.849Z,93.26
2018-12-18T04:21:00.838Z,93.47
2018-12-18T04:22:00.787Z,93.74
2018-12-18T04:23:00.807Z,93.57
2018-12-18T04:24:00.814Z,93.84
2018-12-18T04:25:00.786Z,93.88
2018-12-18T04:26:00.804Z,94.09
2018-12-18T04:27:00.771Z,93.84
2018-12-18T04:28:00.738Z,94.09
2018-12-18T04:29:00.756Z,93.88
2018-12-18T04:30:00.765Z,93.68
2018-12-18T04:31:00.831Z,93.68
2018-12-18T04:32:00.732Z,94.05
2018-12-18T04:33:00.704Z,93.63
2018-12-18T04:34:00.691Z,93.99
2018-12-18T04:35:00.656Z,94.46
2018-12-18T04:36:00.683Z,94.09
2018-12-18T04:37:00.665Z,94.15
2018-12-18T04:38:00.644Z,94.88
2018-12-18T04:39:00.623Z,94.61
2018-12-18T04:40:00.642Z,94.61
2018-12-18T04:41:00.799Z,95.44
2018-12-18T04:42:00.625Z,94.71
2018-12-18T04:43:00.588Z,94.92
2018-12-18T04:44:00.595Z,95.34
2018-12-18T04:45:00.610Z,95.54
2018-12-18T04:46:00.552Z,95.13
2018-12-18T04:47:00.599Z,95.75
2018-12-18T04:48:00.541Z,95.75
2018-12-18T04:49:00.541Z,95.86
2018-12-18T04:50:00.518Z,96.06
2018-12-18T04:51:00.553Z,96.06
2018-12-18T04:52:00.506Z,95.75
2018-12-18T04:53:00.509Z,95.54
2018-12-18T04:54:00.484Z,96.17
2018-12-18T04:55:00.485Z,96.06
2018-12-18T04:56:00.463Z,96.17
2018-12-18T04:57:00.443Z,96.17
2018-12-18T04:58:00.454Z,95.75
2018-12-18T04:59:00.465Z,95.86
2018-12-18T05:00:00.426Z,95.86
2018-12-18T05:01:00.457Z,95.75
2018-12-18T05:02:00.418Z,95.61
2018-12-18T05:03:00.385Z,95.75
2018-12-18T05:04:00.411Z,95.75
2018-12-18T05:05:00.417Z,95.71
2018-12-18T05:06:00.413Z,95.86
2018-12-18T05:07:00.341Z,95.81
2018-12-18T05:08:00.345Z,95.71
2018-12-18T05:09:00.337Z,95.96
2018-12-18T05:10:00.349Z,95.81
2018-12-18T05:11:00.315Z,95.71
2018-12-18T05:12:09.761Z,95.86
2018-12-18T05:13:00.279Z,95.86
2018-12-18T05:14:00.259Z,95.75
2018-12-18T05:15:00.245Z,95.86
2018-12-18T05:16:00.238Z,95.86
2018-12-18T05:17:00.247Z,95.86
2018-12-18T05:18:00.223Z,96.58
2018-12-18T05:19:00.215Z,96.37
2018-12-18T05:20:00.176Z,96.69
2018-12-18T05:21:00.170Z,96.48
2018-12-18T05:22:00.180Z,96.37
2018-12-18T05:23:00.158Z,96.27
2018-12-18T05:24:00.179Z,96.17
2018-12-18T05:25:00.165Z,96.17
2018-12-18T05:26:00.144Z,95.96
2018-12-18T05:27:00.109Z,96.58
2018-12-18T05:28:00.107Z,96.48
2018-12-18T05:29:00.149Z,96.69
2018-12-18T05:30:00.077Z,96.79
2018-12-18T05:31:00.080Z,96.48
2018-12-18T05:32:00.066Z,97.41
2018-12-18T05:33:00.066Z,97.00
2018-12-18T05:34:00.061Z,97.00
2018-12-18T05:35:00.046Z,96.58
2018-12-18T05:36:00.029Z,96.89
2018-12-18T05:37:00.040Z,97.10
2018-12-18T05:37:59.991Z,97.41
2018-12-18T05:39:00.017Z,96.69
2018-12-18T05:40:00.005Z,96.79
2018-12-18T05:40:59.990Z,96.89
2018-12-18T05:41:59.974Z,96.58
2018-12-18T05:42:59.950Z,96.69
2018-12-18T05:43:59.959Z,96.89
2018-12-18T05:44:59.967Z,97.00
2018-12-18T05:45:59.922Z,97.41
2018-12-18T05:46:59.913Z,97.20
2018-12-18T05:47:59.916Z,97.31
2018-12-18T05:48:59.890Z,97.10
2018-12-18T05:49:59.904Z,97.10
2018-12-18T05:50:59.908Z,96.89
2018-12-18T05:51:59.866Z,97.20
2018-12-18T05:52:59.864Z,97.10
2018-12-18T05:53:59.847Z,97.41
2018-12-18T05:54:59.830Z,97.20
2018-12-18T05:55:59.825Z,97.52
2018-12-18T05:56:59.826Z,97.31
2018-12-18T05:57:59.798Z,97.37
2018-12-18T05:58:59.797Z,97.10
2018-12-18T05:59:59.812Z,96.79
2018-12-18T06:00:59.758Z,96.69
2018-12-18T06:01:59.759Z,96.37
2018-12-18T06:02:59.756Z,96.27
2018-12-18T06:03:59.755Z,96.64
2018-12-18T06:05:03.245Z,96.54
2018-12-18T06:05:59.756Z,96.33
2018-12-18T06:06:59.757Z,96.37
2018-12-18T06:07:59.708Z,96.37
2018-12-18T06:08:59.682Z,96.37
2018-12-18T06:09:59.679Z,96.48
2018-12-18T06:10:59.674Z,96.58
2018-12-18T06:11:59.647Z,96.37
2018-12-18T06:12:59.696Z,96.54
2018-12-18T06:13:59.652Z,96.89
2018-12-18T06:14:59.639Z,97.37
2018-12-18T06:15:59.633Z,97.31
2018-12-18T06:16:59.591Z,97.52
2018-12-18T06:17:59.589Z,97.16
2018-12-18T06:18:59.604Z,96.64
2018-12-18T06:19:59.566Z,96.75
2018-12-18T06:20:59.585Z,96.58
2018-12-18T06:21:59.562Z,96.69
2018-12-18T06:22:59.563Z,96.58
2018-12-18T06:23:59.548Z,96.37
2018-12-18T06:24:59.511Z,96.44
2018-12-18T06:25:59.510Z,96.58
2018-12-18T06:26:59.506Z,96.44
2018-12-18T06:27:59.498Z,96.48
2018-12-18T06:28:59.530Z,96.64
2018-12-18T06:29:59.472Z,96.75
2018-12-18T06:30:59.483Z,96.79
2018-12-18T06:31:59.461Z,96.33
2018-12-18T06:32:59.433Z,96.58
2018-12-18T06:33:59.435Z,96.58
2018-12-18T06:34:59.459Z,96.54
2018-12-18T06:35:59.436Z,96.54
2018-12-18T06:36:59.401Z,96.75
2018-12-18T06:37:59.398Z,96.58
2018-12-18T06:38:59.385Z,96.02
2018-12-18T06:39:59.402Z,96.12
2018-12-18T06:40:59.350Z,95.92
2018-12-18T06:41:59.336Z,96.33
2018-12-18T06:42:59.338Z,96.23
2018-12-18T06:43:59.340Z,96.33
2018-12-18T06:44:59.343Z,96.33
2018-12-18T06:45:59.392Z,96.44
2018-12-18T06:46:59.302Z,96.33
2018-12-18T06:47:59.295Z,95.50
2018-12-18T06:48:59.294Z,95.71
2018-12-18T06:49:59.276Z,95.81
2018-12-18T06:50:59.284Z,95.67
2018-12-18T06:51:59.335Z,95.92
2018-12-18T06:52:59.259Z,95.67
2018-12-18T06:53:59.243Z,95.81
2018-12-18T06:54:59.229Z,95.87
2018-12-18T06:55:59.220Z,95.87
2018-12-18T06:56:59.230Z,95.77
2018-12-18T06:57:59.185Z,95.87
2018-12-18T06:58:59.179Z,96.02
2018-12-18T06:59:59.174Z,95.77
2018-12-18T07:00:59.184Z,95.71
2018-12-18T07:01:59.195Z,95.46
2018-12-18T07:02:59.133Z,95.71
2018-12-18T07:03:59.114Z,95.67
2018-12-18T07:04:59.117Z,96.29
2018-12-18T07:05:59.092Z,96.39
2018-12-18T07:06:59.124Z,96.44
2018-12-18T07:07:59.113Z,96.19
2018-12-18T07:08:59.090Z,96.19
2018-12-18T07:09:59.073Z,96.29
2018-12-18T07:10:59.067Z,96.33
2018-12-18T07:11:59.068Z,96.08
2018-12-18T07:12:59.076Z,96.08
2018-12-18T07:13:59.023Z,96.08
2018-12-18T07:14:59.064Z,95.87
2018-12-18T07:15:58.992Z,96.19
2018-12-18T07:16:59.006Z,95.98
2018-12-18T07:17:58.998Z,96.08
2018-12-18T07:18:59.014Z,95.87
2018-12-18T07:19:58.971Z,95.87
2018-12-18T07:20:58.961Z,96.08
2018-12-18T07:21:58.939Z,96.19
2018-12-18T07:22:58.935Z,95.87
2018-12-18T07:23:58.917Z,96.08
2018-12-18T07:24:58.911Z,95.98
2018-12-18T07:25:58.889Z,96.08
2018-12-18T07:26:58.902Z,95.98
2018-12-18T07:27:58.908Z,96.08
2018-12-18T07:28:58.879Z,96.19
2018-12-18T07:29:58.877Z,95.87
2018-12-18T07:30:58.857Z,95.93
2018-12-18T07:31:58.846Z,95.87
2018-12-18T07:32:58.855Z,95.77
2018-12-18T07:33:58.832Z,96.19
2018-12-18T07:34:58.839Z,96.19
2018-12-18T07:35:58.826Z,96.19
2018-12-18T07:36:58.789Z,96.08
2018-12-18T07:37:58.790Z,96.29
2018-12-18T07:38:58.769Z,96.29
2018-12-18T07:39:58.750Z,96.50
2018-12-18T07:40:58.758Z,95.72
2018-12-18T07:41:58.740Z,95.87
2018-12-18T07:42:58.746Z,95.67
2018-12-18T07:43:58.727Z,95.77
2018-12-18T07:44:58.749Z,95.98
2018-12-18T07:45:58.728Z,95.72
2018-12-18T07:46:58.809Z,95.83
2018-12-18T07:47:58.678Z,95.67
2018-12-18T07:48:58.667Z,95.93
2018-12-18T07:49:58.671Z,95.87
2018-12-18T07:50:58.673Z,96.08
2018-12-18T07:51:58.626Z,95.36
2018-12-18T07:52:58.638Z,95.15
2018-12-18T07:53:58.609Z,95.46
2018-12-18T07:54:58.617Z,95.46
2018-12-18T07:56:00.315Z,95.31
2018-12-18T07:56:58.604Z,95.56
2018-12-18T07:57:58.566Z,95.41
2018-12-18T07:58:59.168Z,95.10
2018-12-18T07:59:58.550Z,95.20
2018-12-18T08:00:58.540Z,94.68
2018-12-18T08:01:58.556Z,95.10
2018-12-18T08:02:58.539Z,95.62
2018-12-18T08:03:58.551Z,94.48
2018-12-18T08:04:58.502Z,94.79
2018-12-18T08:05:58.499Z,94.89
2018-12-18T08:06:58.480Z,95.00
2018-12-18T08:07:58.476Z,94.58
2018-12-18T08:08:58.470Z,94.58
2018-12-18T08:09:58.481Z,94.27
2018-12-18T08:10:58.435Z,94.37
2018-12-18T08:11:58.420Z,94.58
2018-12-18T08:12:58.427Z,94.27
2018-12-18T08:13:58.425Z,94.37
2018-12-18T08:14:58.380Z,94.68
2018-12-18T08:15:58.430Z,94.48
2018-12-18T08:16:58.405Z,94.79
2018-12-18T08:17:58.366Z,94.79
2018-12-18T08:18:58.356Z,94.74
2018-12-18T08:19:58.354Z,94.64
2018-12-18T08:20:58.331Z,94.37
2018-12-18T08:21:58.341Z,94.17
2018-12-18T08:22:58.307Z,94.12
2018-12-18T08:23:58.369Z,94.12
2018-12-18T08:24:58.303Z,94.74
2018-12-18T08:25:58.282Z,94.12
2018-12-18T08:26:58.291Z,94.33
2018-12-18T08:27:58.254Z,94.12
2018-12-18T08:28:58.246Z,94.33
2018-12-18T08:29:58.251Z,94.02
2018-12-18T08:30:58.305Z,94.33
2018-12-18T08:31:58.262Z,94.23
2018-12-18T08:32:58.263Z,94.12
2018-12-18T08:33:58.181Z,94.33
2018-12-18T08:34:58.172Z,94.33
2018-12-18T08:35:58.163Z,94.12
2018-12-18T08:36:58.178Z,94.12
2018-12-18T08:37:58.166Z,93.46
2018-12-18T08:38:58.130Z,93.81
2018-12-18T08:39:58.706Z,93.77
2018-12-18T08:40:58.109Z,93.66
2018-12-18T08:41:58.121Z,93.15
2018-12-18T08:42:58.153Z,93.15
2018-12-18T08:43:58.089Z,93.25
2018-12-18T08:44:58.053Z,93.25
2018-12-18T08:45:58.056Z,93.35
2018-12-18T08:46:58.073Z,92.84
2018-12-18T08:47:58.053Z,93.04
2018-12-18T08:48:58.195Z,92.94
2018-12-18T08:50:00.874Z,93.04
2018-12-18T08:50:58.713Z,93.04
2018-12-18T08:51:58.080Z,93.00
2018-12-18T08:52:57.994Z,92.84
2018-12-18T08:53:57.963Z,92.28
2018-12-18T08:54:58.145Z,92.18
2018-12-18T08:55:57.966Z,92.28
2018-12-18T08:56:58.036Z,92.38
2018-12-18T08:57:58.718Z,91.45
2018-12-18T08:58:57.953Z,92.07
2018-12-18T08:59:57.995Z,91.86
2018-12-18T09:00:57.936Z,91.76
2018-12-18T09:01:57.916Z,91.66
2018-12-18T09:02:58.004Z,92.07
2018-12-18T09:03:57.873Z,91.86
2018-12-18T09:04:57.853Z,91.51
2018-12-18T09:05:58.038Z,91.72
2018-12-18T09:06:57.832Z,91.93
2018-12-18T09:07:57.826Z,91.61
2018-12-18T09:08:58.740Z,91.61
2018-12-18T09:09:57.842Z,91.41
2018-12-18T09:10:57.793Z,91.41
2018-12-18T09:11:57.856Z,90.99
2018-12-18T09:13:06.864Z,91.51
2018-12-18T09:13:57.747Z,90.58
2018-12-18T09:14:57.740Z,90.89
2018-12-18T09:15:57.749Z,91.09
2018-12-18T09:16:57.746Z,90.78
2018-12-18T09:17:57.698Z,90.16
2018-12-18T09:18:57.802Z,90.06
2018-12-18T09:19:57.714Z,89.86
2018-12-18T09:20:57.773Z,90.02
2018-12-18T09:21:57.672Z,89.81
2018-12-18T09:22:57.656Z,89.61
2018-12-18T09:23:57.930Z,89.61
2018-12-18T09:24:57.651Z,89.92
2018-12-18T09:25:57.640Z,89.71
2018-12-18T09:26:57.659Z,89.50
2018-12-18T09:27:57.668Z,89.09
2018-12-18T09:28:57.659Z,88.98
2018-12-18T09:29:57.629Z,88.26
2018-12-18T09:30:57.663Z,89.09
2018-12-18T09:31:57.604Z,88.67
2018-12-18T09:32:57.680Z,88.67
2018-12-18T09:33:57.630Z,88.98
2018-12-18T09:34:57.576Z,88.88
2018-12-18T09:35:57.549Z,88.84
2018-12-18T09:36:57.550Z,88.12
2018-12-18T09:37:57.560Z,88.67
2018-12-18T09:38:57.531Z,88.01
2018-12-18T09:39:57.504Z,87.91
2018-12-18T09:40:57.507Z,87.74
2018-12-18T09:41:57.526Z,87.49
2018-12-18T09:42:57.480Z,87.18
2018-12-18T09:43:57.483Z,88.12
2018-12-18T09:44:57.445Z,88.12
2018-12-18T09:45:57.472Z,87.18
2018-12-18T09:46:57.418Z,86.98
2018-12-18T09:47:57.412Z,88.22
2018-12-18T09:48:57.437Z,87.60
2018-12-18T09:49:57.403Z,87.70
2018-12-18T09:50:57.393Z,87.60
2018-12-18T09:51:57.387Z,87.49
2018-12-18T09:52:57.392Z,87.49
2018-12-18T09:53:57.379Z,87.29
2018-12-18T09:54:57.387Z,88.22
2018-12-18T09:55:57.335Z,87.60
2018-12-18T09:56:57.304Z,88.12
2018-12-18T09:57:57.353Z,87.39
2018-12-18T09:58:57.412Z,87.66
2018-12-18T09:59:57.387Z,86.46
2018-12-18T10:00:57.287Z,86.01
2018-12-18T10:01:57.272Z,86.11
2018-12-18T10:02:57.283Z,86.42
2018-12-18T10:03:57.260Z,86.32
2018-12-18T10:04:57.283Z,86.42
2018-12-18T10:05:57.244Z,86.01
2018-12-18T10:06:57.221Z,86.21
2018-12-18T10:07:57.197Z,86.42
2018-12-18T10:08:57.213Z,86.21
2018-12-18T10:09:57.181Z,85.63
2018-12-18T10:10:57.222Z,85.91
2018-12-18T10:11:57.167Z,85.60
2018-12-18T10:12:57.164Z,85.60
2018-12-18T10:13:57.188Z,86.01
2018-12-18T10:14:57.140Z,85.80
2018-12-18T10:15:57.147Z,85.28
2018-12-18T10:16:57.106Z,85.70
2018-12-18T10:17:57.104Z,85.39
2018-12-18T10:19:05.913Z,85.18
2018-12-18T10:19:57.089Z,85.18
2018-12-18T10:21:06.374Z,85.60
2018-12-18T10:21:57.062Z,85.39
2018-12-18T10:22:57.037Z,85.22
2018-12-18T10:23:57.071Z,85.60
2018-12-18T10:24:57.047Z,84.91
2018-12-18T10:25:57.034Z,85.60
2018-12-18T10:27:04.572Z,85.80
2018-12-18T10:27:56.982Z,85.91
2018-12-18T10:28:57.009Z,85.84
2018-12-18T10:29:56.964Z,85.80
2018-12-18T10:30:56.995Z,85.60
2018-12-18T10:31:57.023Z,85.74
2018-12-18T10:32:56.938Z,85.60
2018-12-18T10:33:56.965Z,85.70
2018-12-18T10:34:57.016Z,85.91
2018-12-18T10:36:02.832Z,85.49
2018-12-18T10:36:57.936Z,85.49
2018-12-18T10:37:56.941Z,85.45
2018-12-18T10:38:56.911Z,84.73
2018-12-18T10:39:56.937Z,85.14
2018-12-18T10:40:56.945Z,84.83
2018-12-18T10:41:56.869Z,84.83
2018-12-18T10:42:57.853Z,84.63
2018-12-18T10:43:56.879Z,84.63
2018-12-18T10:44:56.839Z,84.63
2018-12-18T10:45:56.807Z,84.21
2018-12-18T10:46:56.798Z,84.31
2018-12-18T10:47:56.827Z,83.70
2018-12-18T10:48:56.808Z,84.52
2018-12-18T10:49:56.778Z,84.45
2018-12-18T10:50:56.829Z,84.56
2018-12-18T10:51:56.756Z,84.56
2018-12-18T10:52:56.770Z,83.94
2018-12-18T10:53:56.796Z,84.42
2018-12-18T10:54:56.752Z,84.21
2018-12-18T10:55:56.740Z,85.14
2018-12-18T10:56:56.723Z,84.83
2018-12-18T10:57:56.683Z,84.42
2018-12-18T10:58:56.727Z,84.63
2018-12-18T10:59:56.827Z,84.52
2018-12-18T11:00:57.356Z,84.79
2018-12-18T11:01:56.656Z,84.17
2018-12-18T11:02:56.663Z,83.65
2018-12-18T11:03:56.657Z,83.45
2018-12-18T11:04:56.663Z,84.00
2018-12-18T11:05:56.621Z,83.76
2018-12-18T11:06:56.617Z,83.45
2018-12-18T11:07:56.583Z,83.25
2018-12-18T11:08:56.679Z,83.45
2018-12-18T11:09:56.670Z,82.93
2018-12-18T11:10:56.633Z,83.25
2018-12-18T11:11:56.624Z,83.34
2018-12-18T11:12:56.569Z,83.25
2018-12-18T11:13:56.559Z,82.83
2018-12-18T11:14:56.516Z,82.69
2018-12-18T11:15:57.464Z,82.89
2018-12-18T11:16:56.524Z,82.59
2018-12-18T11:17:56.454Z,82.07
2018-12-18T11:18:56.456Z,83.14
2018-12-18T11:19:56.502Z,82.83
2018-12-18T11:20:56.489Z,82.89
2018-12-18T11:21:56.463Z,82.59
2018-12-18T11:22:56.501Z,82.59
2018-12-18T11:23:56.438Z,82.79
2018-12-18T11:24:56.463Z,82.79
2018-12-18T11:25:56.401Z,82.38
2018-12-18T11:26:56.393Z,82.07
2018-12-18T11:27:56.410Z,82.48
2018-12-18T11:28:56.493Z,82.07
2018-12-18T11:29:56.424Z,81.93
2018-12-18T11:30:56.361Z,82.03
2018-12-18T11:31:56.395Z,82.24
2018-12-18T11:32:56.325Z,81.93
2018-12-18T11:33:56.328Z,82.14
2018-12-18T11:34:56.393Z,82.14
2018-12-18T11:35:56.321Z,82.34
2018-12-18T11:36:56.390Z,81.27
2018-12-18T11:37:56.355Z,80.79
2018-12-18T11:38:56.334Z,80.96
2018-12-18T11:39:56.263Z,81.27
2018-12-18T11:40:56.240Z,81.37
2018-12-18T11:41:56.290Z,82.14
2018-12-18T11:42:56.244Z,81.93
2018-12-18T11:43:56.209Z,82.03
2018-12-18T11:44:56.234Z,82.14
2018-12-18T11:45:56.205Z,81.82
2018-12-18T11:46:56.179Z,82.24
2018-12-18T11:47:56.230Z,82.24
2018-12-18T11:48:56.166Z,82.34
2018-12-18T11:49:56.192Z,82.45
2018-12-18T11:50:56.162Z,82.24
2018-12-18T11:51:56.107Z,82.65
2018-12-18T11:52:56.165Z,82.65
2018-12-18T11:53:56.112Z,82.75
2018-12-18T11:54:56.094Z,82.65
2018-12-18T11:55:56.088Z,82.51
2018-12-18T11:56:56.102Z,82.03
2018-12-18T11:57:56.121Z,81.93
2018-12-18T11:58:56.054Z,82.14
2018-12-18T11:59:56.045Z,82.20
2018-12-18T12:00:56.021Z,82.34
2018-12-18T12:01:56.046Z,80.96
2018-12-18T12:02:56.037Z,81.07
2018-12-18T12:03:56.078Z,80.55
2018-12-18T12:04:56.057Z,80.10
2018-12-18T12:05:56.074Z,80.30
2018-12-18T12:06:56.065Z,80.30
2018-12-18T12:07:55.966Z,80.00
2018-12-18T12:08:55.956Z,80.00
2018-12-18T12:09:55.955Z,79.27
2018-12-18T12:10:55.935Z,79.83
2018-12-18T12:11:55.928Z,80.00
2018-12-18T12:12:55.925Z,79.69
2018-12-18T12:13:56.037Z,78.97
2018-12-18T12:14:55.946Z,79.38
2018-12-18T12:15:55.865Z,79.27
2018-12-18T12:16:56.035Z,80.00
2018-12-18T12:17:55.870Z,78.86
2018-12-18T12:18:55.839Z,79.07
2018-12-18T12:19:55.812Z,78.59
2018-12-18T12:20:55.860Z,79.07
2018-12-18T12:21:55.880Z,79.17
2018-12-18T12:22:55.789Z,79.27
2018-12-18T12:23:55.951Z,79.83
2018-12-18T12:24:55.753Z,79.83
2018-12-18T12:25:55.808Z,80.04
2018-12-18T12:26:55.793Z,79.83
2018-12-18T12:27:55.794Z,80.14
2018-12-18T12:28:55.719Z,79.93
2018-12-18T12:29:55.734Z,80.04
2018-12-18T12:30:55.762Z,80.04
2018-12-18T12:31:55.706Z,80.24
2018-12-18T12:32:55.741Z,80.04
2018-12-18T12:33:55.672Z,80.34
2018-12-18T12:34:55.679Z,80.04
2018-12-18T12:35:55.726Z,80.04
2018-12-18T12:36:55.654Z,79.83
2018-12-18T12:37:55.669Z,79.83
2018-12-18T12:38:55.612Z,79.83
2018-12-18T12:39:55.660Z,80.44
2018-12-18T12:40:55.736Z,80.34
2018-12-18T12:41:55.615Z,80.44
2018-12-18T12:42:55.712Z,80.24
2018-12-18T12:43:55.607Z,80.04
2018-12-18T12:44:55.617Z,80.14
2018-12-18T12:45:55.590Z,80.04
2018-12-18T12:46:55.591Z,80.04
2018-12-18T12:47:55.548Z,80.30
2018-12-18T12:48:55.564Z,79.69
2018-12-18T12:49:55.593Z,79.48
2018-12-18T12:50:56.372Z,79.24
2018-12-18T12:51:55.551Z,78.93